Terminal Aerodrome Forecast
Issued by NWS

Home | Current Version | Previous Version | Text Only | Print | Product List | Glossary On
Versions: 1 2 3 4 5 6 7 8 9 10 11 12 13 14 15 16 17
000
FTUS43 KIND 010907 AAA
TAFBMG
TAF AMD
KBMG 010907Z 0109/0206 23007KT P6SM OVC110
     FM011000 21005KT 4SM BR OVC005
     FM011700 27008KT P6SM SCT015 BKN040 PROB30 0120/0202 3SM TSRA
      BKN015CB OVC040
     FM020200 29006KT P6SM BKN040
      AMD LTD TO CLD VIS AND WIND TIL 011300=

USA.gov is the U.S. government's official web portal to all federal, state and local government web resources and services.